createdAt,value
2022-08-09T00:00:30.798Z,23.22
2022-08-09T00:02:10.573Z,23.23
2022-08-09T00:03:50.332Z,23.2
2022-08-09T00:05:30.085Z,23.18
2022-08-09T00:07:09.871Z,23.14
2022-08-09T00:08:49.610Z,23.15
2022-08-09T00:12:09.161Z,23.09
2022-08-09T00:13:48.920Z,23.1
2022-08-09T00:15:28.676Z,23.07
2022-08-09T00:17:08.453Z,23.05
2022-08-09T00:18:48.215Z,23.03
2022-08-09T00:20:27.964Z,23.02
2022-08-09T00:22:07.746Z,22.99
2022-08-09T00:23:47.517Z,22.97
2022-08-09T00:25:27.271Z,22.95
2022-08-09T00:27:07.030Z,22.94
2022-08-09T00:28:46.788Z,22.92
2022-08-09T00:30:26.565Z,22.91
2022-08-09T00:32:06.324Z,22.89
2022-08-09T00:33:46.094Z,22.89
2022-08-09T00:35:25.858Z,22.85
2022-08-09T00:37:05.624Z,22.84
2022-08-09T00:38:45.371Z,22.82
2022-08-09T00:40:25.142Z,22.82
2022-08-09T00:42:04.905Z,22.82
2022-08-09T00:44:07.945Z,22.8
2022-08-09T00:45:24.440Z,22.78
2022-08-09T00:47:04.206Z,22.77
2022-08-09T00:48:43.978Z,22.75
2022-08-09T00:50:23.734Z,22.74
2022-08-09T00:52:03.497Z,22.7
2022-08-09T00:53:43.253Z,22.7
2022-08-09T00:55:23.025Z,22.68
2022-08-09T00:57:02.783Z,22.66
2022-08-09T00:58:42.547Z,22.64
2022-08-09T01:00:22.335Z,22.65
2022-08-09T01:02:02.082Z,22.63
2022-08-09T01:03:41.850Z,22.61
2022-08-09T01:05:21.608Z,22.6
2022-08-09T01:07:01.380Z,22.58
2022-08-09T01:08:41.146Z,22.56
2022-08-09T01:10:20.901Z,22.55
2022-08-09T01:12:00.673Z,22.54
2022-08-09T01:13:40.465Z,22.53
2022-08-09T01:15:20.190Z,22.52
2022-08-09T01:18:39.728Z,22.51
2022-08-09T01:20:19.484Z,22.49
2022-08-09T01:21:59.262Z,22.47
2022-08-09T01:23:39.033Z,22.46
2022-08-09T01:25:18.793Z,22.44
2022-08-09T01:28:38.310Z,22.43
2022-08-09T01:33:37.615Z,22.4
2022-08-09T01:35:17.379Z,22.38
2022-08-09T01:36:57.137Z,22.36
2022-08-09T01:38:36.896Z,22.36
2022-08-09T01:40:16.664Z,22.33
2022-08-09T01:41:56.429Z,22.36
2022-08-09T01:43:36.196Z,22.34
2022-08-09T01:45:15.965Z,22.32
2022-08-09T01:46:55.732Z,22.3
2022-08-09T01:48:35.497Z,22.29
2022-08-09T01:50:15.251Z,22.28
2022-08-09T01:51:55.018Z,22.28
2022-08-09T01:53:34.783Z,22.26
2022-08-09T01:55:14.550Z,22.25
2022-08-09T01:56:54.303Z,22.25
2022-08-09T01:58:34.081Z,22.24
2022-08-09T02:00:13.832Z,22.24
2022-08-09T02:01:53.610Z,22.24
2022-08-09T02:03:33.358Z,22.21
2022-08-09T02:05:13.160Z,22.21
2022-08-09T02:06:52.887Z,22.19
2022-08-09T02:08:32.659Z,22.18
2022-08-09T02:10:12.417Z,22.19
2022-08-09T02:11:52.189Z,22.18
2022-08-09T02:13:31.952Z,22.17
2022-08-09T02:15:11.733Z,22.16
2022-08-09T02:18:31.256Z,22.12
2022-08-09T02:20:11.030Z,22.11
2022-08-09T02:21:50.789Z,22.12
2022-08-09T02:23:30.539Z,22.12
2022-08-09T02:25:10.310Z,22.11
2022-08-09T02:26:50.071Z,22.1
2022-08-09T02:28:29.849Z,22.09
2022-08-09T02:30:09.595Z,22.06
2022-08-09T02:31:49.372Z,22.07
2022-08-09T02:33:29.134Z,22.05
2022-08-09T02:35:08.891Z,22.06
2022-08-09T02:36:48.662Z,22.04
2022-08-09T02:38:28.433Z,22.02
2022-08-09T02:40:08.185Z,22.03
2022-08-09T02:41:47.939Z,22.01
2022-08-09T02:43:27.723Z,21.99
2022-08-09T02:45:07.491Z,21.99
2022-08-09T02:46:47.240Z,21.98
2022-08-09T02:48:27.028Z,21.98
2022-08-09T02:50:06.771Z,21.96
2022-08-09T02:51:46.544Z,21.97
2022-08-09T02:53:26.303Z,21.94
2022-08-09T02:55:06.075Z,21.93
2022-08-09T02:56:45.839Z,21.92
2022-08-09T02:58:25.600Z,21.92
2022-08-09T03:00:05.369Z,21.92
2022-08-09T03:01:45.138Z,21.9
2022-08-09T03:03:24.890Z,21.91
2022-08-09T03:05:04.657Z,21.88
2022-08-09T03:06:44.422Z,21.87
2022-08-09T03:08:24.190Z,21.87
2022-08-09T03:10:03.955Z,21.85
2022-08-09T03:11:43.725Z,21.87
2022-08-09T03:13:23.481Z,21.86
2022-08-09T03:15:03.235Z,21.83
2022-08-09T03:16:43.015Z,21.83
2022-08-09T03:20:02.532Z,21.8
2022-08-09T03:21:42.298Z,21.8
2022-08-09T03:23:22.069Z,21.82
2022-08-09T03:25:01.820Z,21.83
2022-08-09T03:26:41.651Z,21.86
2022-08-09T03:28:21.369Z,21.85
2022-08-09T03:31:40.896Z,21.91
2022-08-09T03:33:20.649Z,21.93
2022-08-09T03:35:00.427Z,21.96
2022-08-09T03:36:40.177Z,21.98
2022-08-09T03:38:19.961Z,21.96
2022-08-09T03:39:59.722Z,21.98
2022-08-09T03:41:39.477Z,22
2022-08-09T03:43:19.253Z,22.01
2022-08-09T03:44:59.005Z,22.03
2022-08-09T03:46:38.765Z,22.04
2022-08-09T03:48:18.534Z,22.02
2022-08-09T03:49:58.308Z,22.06
2022-08-09T03:51:38.071Z,22.08
2022-08-09T03:53:17.835Z,22.05
2022-08-09T03:54:57.593Z,22.08
2022-08-09T03:56:37.363Z,22.07
2022-08-09T03:58:17.130Z,22.11
2022-08-09T03:59:56.901Z,22.1
2022-08-09T04:01:36.654Z,22.11
2022-08-09T04:03:16.406Z,22.12
2022-08-09T04:04:56.180Z,22.11
2022-08-09T04:06:35.933Z,22.11
2022-08-09T04:08:15.713Z,22.13
2022-08-09T04:09:55.495Z,22.14
2022-08-09T04:11:35.250Z,22.14
2022-08-09T04:14:54.773Z,22.15
2022-08-09T04:16:34.532Z,22.16
2022-08-09T04:18:14.301Z,22.14
2022-08-09T04:19:54.081Z,22.16
2022-08-09T04:21:33.845Z,22.15
2022-08-09T04:23:13.609Z,22.15
2022-08-09T04:24:53.372Z,22.16
2022-08-09T04:26:33.152Z,22.16
2022-08-09T04:28:12.902Z,22.17
2022-08-09T04:29:52.679Z,22.17
2022-08-09T04:31:32.442Z,22.17
2022-08-09T04:33:12.211Z,22.18
2022-08-09T04:34:51.972Z,22.18
2022-08-09T04:36:31.765Z,22.2
2022-08-09T04:38:11.496Z,22.21
2022-08-09T04:43:10.816Z,22.21
2022-08-09T04:44:50.567Z,22.2
2022-08-09T04:46:30.341Z,22.23
2022-08-09T04:48:10.113Z,22.25
2022-08-09T04:49:49.889Z,22.23
2022-08-09T04:51:29.648Z,22.24
2022-08-09T04:53:09.425Z,22.24
2022-08-09T04:54:49.181Z,22.24
2022-08-09T04:56:28.961Z,22.25
2022-08-09T04:58:08.716Z,22.26
2022-08-09T04:59:48.502Z,22.26
2022-08-09T05:01:28.255Z,22.26
2022-08-09T05:03:08.023Z,22.3
2022-08-09T05:04:47.796Z,22.29
2022-08-09T05:06:27.559Z,22.29
2022-08-09T05:08:07.370Z,22.28
2022-08-09T05:09:47.143Z,22.28
2022-08-09T05:11:26.904Z,22.31
2022-08-09T05:13:06.661Z,22.33
2022-08-09T05:14:46.440Z,22.33
2022-08-09T05:18:05.953Z,22.33
2022-08-09T05:19:45.729Z,22.35
2022-08-09T05:21:25.483Z,22.38
2022-08-09T05:23:05.260Z,22.36
2022-08-09T05:24:45.024Z,22.4
2022-08-09T05:26:24.769Z,22.46
2022-08-09T05:28:04.544Z,22.54
2022-08-09T05:29:44.308Z,22.56
2022-08-09T05:31:24.086Z,22.6
2022-08-09T05:33:03.834Z,22.67
2022-08-09T05:34:43.618Z,22.76
2022-08-09T05:36:23.388Z,22.8
2022-08-09T05:39:42.911Z,22.91
2022-08-09T05:41:22.670Z,22.98
2022-08-09T05:43:02.429Z,23.02
2022-08-09T05:44:42.208Z,23.06
2022-08-09T05:46:21.976Z,23.12
2022-08-09T05:48:01.732Z,23.17
2022-08-09T05:49:41.504Z,23.21
2022-08-09T05:51:21.283Z,23.25
2022-08-09T05:53:01.052Z,23.3
2022-08-09T05:54:40.802Z,23.33
2022-08-09T05:56:20.572Z,23.35
2022-08-09T05:58:00.337Z,23.43
2022-08-09T05:59:40.105Z,23.47
2022-08-09T06:01:19.912Z,23.53
2022-08-09T06:02:59.657Z,23.58
2022-08-09T06:04:39.436Z,23.62
2022-08-09T06:06:19.195Z,23.67
2022-08-09T06:09:38.725Z,23.76
2022-08-09T06:11:18.493Z,23.81
2022-08-09T06:12:58.248Z,23.87
2022-08-09T06:14:38.059Z,23.88
2022-08-09T06:16:17.795Z,23.93
2022-08-09T06:17:57.553Z,23.97
2022-08-09T06:19:37.319Z,24
2022-08-09T06:21:17.092Z,24.05
2022-08-09T06:22:56.863Z,24.11
2022-08-09T06:24:36.615Z,24.14
2022-08-09T06:26:16.395Z,24.16
2022-08-09T06:27:56.153Z,24.2
2022-08-09T06:29:35.924Z,24.23
2022-08-09T06:31:15.701Z,24.27
2022-08-09T06:32:55.467Z,24.31
2022-08-09T06:34:35.228Z,24.35
2022-08-09T06:36:15.009Z,24.39
2022-08-09T06:37:54.757Z,24.45
2022-08-09T06:41:14.305Z,24.5
2022-08-09T06:42:54.091Z,24.53
2022-08-09T06:44:33.827Z,24.59
2022-08-09T06:46:13.592Z,24.62
2022-08-09T06:47:53.387Z,24.65
2022-08-09T06:49:33.131Z,24.7
2022-08-09T06:51:12.917Z,24.71
2022-08-09T06:52:52.684Z,24.74
2022-08-09T06:54:32.450Z,24.81
2022-08-09T06:56:12.203Z,24.83
2022-08-09T06:57:51.980Z,24.87
2022-08-09T06:59:31.754Z,24.88
2022-08-09T07:02:51.289Z,24.96
2022-08-09T07:04:31.039Z,24.99
2022-08-09T07:06:10.819Z,25.03
2022-08-09T07:07:50.583Z,25.05
2022-08-09T07:09:30.340Z,25.09
2022-08-09T07:11:10.119Z,25.12
2022-08-09T07:12:49.873Z,25.15
2022-08-09T07:14:29.676Z,25.16
2022-08-09T07:16:09.429Z,25.2
2022-08-09T07:17:49.192Z,25.23
2022-08-09T07:19:28.955Z,25.27
2022-08-09T07:21:08.741Z,25.26
2022-08-09T07:22:48.489Z,25.32
2022-08-09T07:24:28.259Z,25.33
2022-08-09T07:26:08.022Z,25.36
2022-08-09T07:27:47.804Z,25.39
2022-08-09T07:29:27.567Z,25.43
2022-08-09T07:31:07.342Z,25.45
2022-08-09T07:32:47.091Z,25.48
2022-08-09T07:34:26.857Z,25.54
2022-08-09T07:36:06.629Z,25.54
2022-08-09T07:37:46.405Z,25.59
2022-08-09T07:39:26.188Z,25.62
2022-08-09T07:41:05.957Z,25.65
2022-08-09T07:42:45.734Z,25.67
2022-08-09T07:44:25.482Z,25.69
2022-08-09T07:46:05.267Z,25.72
2022-08-09T07:47:45.032Z,25.74
2022-08-09T07:49:24.802Z,25.77
2022-08-09T07:51:04.566Z,25.81
2022-08-09T07:52:44.350Z,25.82
2022-08-09T07:54:24.111Z,25.87
2022-08-09T07:56:03.880Z,25.89
2022-08-09T07:57:43.643Z,25.91
2022-08-09T07:59:23.413Z,25.96
2022-08-09T08:01:03.177Z,26.01
2022-08-09T08:02:42.973Z,26.02
2022-08-09T08:04:22.725Z,26.06
2022-08-09T08:06:02.507Z,26.08
2022-08-09T08:07:42.270Z,26.14
2022-08-09T08:11:01.805Z,26.18
2022-08-09T08:12:41.585Z,26.22
2022-08-09T08:14:21.343Z,26.25
2022-08-09T08:16:01.119Z,26.29
2022-08-09T08:17:40.892Z,26.32
2022-08-09T08:19:20.664Z,26.36
2022-08-09T08:21:00.442Z,26.42
2022-08-09T08:22:40.233Z,26.45
2022-08-09T08:24:19.971Z,26.49
2022-08-09T08:25:59.728Z,26.53
2022-08-09T08:29:19.275Z,26.58
2022-08-09T08:30:59.063Z,26.64
2022-08-09T08:32:38.829Z,26.66
2022-08-09T08:34:18.595Z,26.69
2022-08-09T08:35:58.366Z,26.73
2022-08-09T08:37:38.153Z,26.8
2022-08-09T08:39:17.895Z,26.83
2022-08-09T08:40:57.685Z,26.86
2022-08-09T08:42:37.441Z,26.9
2022-08-09T08:44:17.208Z,26.91
2022-08-09T08:45:56.982Z,26.98
2022-08-09T08:47:36.762Z,27.01
2022-08-09T08:50:56.305Z,27.08
2022-08-09T08:52:36.063Z,27.12
2022-08-09T08:54:15.832Z,27.16
2022-08-09T08:55:55.608Z,27.2
2022-08-09T08:57:35.369Z,27.15
2022-08-09T08:59:15.135Z,27.09
2022-08-09T09:00:54.906Z,27.02
2022-08-09T09:02:34.665Z,26.92
2022-08-09T09:04:14.435Z,26.87
2022-08-09T09:05:54.197Z,26.81
2022-08-09T09:07:33.974Z,26.76
2022-08-09T09:09:13.731Z,26.77
2022-08-09T09:10:53.503Z,26.78
2022-08-09T09:12:33.267Z,26.78
2022-08-09T09:14:13.033Z,26.83
2022-08-09T09:15:52.808Z,26.86
2022-08-09T09:17:32.570Z,26.89
2022-08-09T09:19:12.350Z,26.93
2022-08-09T09:20:52.105Z,26.93
2022-08-09T09:22:31.872Z,26.96
2022-08-09T09:25:51.417Z,27
2022-08-09T09:27:31.189Z,27.03
2022-08-09T09:29:10.950Z,27.05
2022-08-09T09:32:30.483Z,27.12
2022-08-09T09:34:10.238Z,27.15
2022-08-09T09:35:50.010Z,27.18
2022-08-09T09:37:30.843Z,27.22
2022-08-09T09:39:09.539Z,27.23
2022-08-09T09:40:49.323Z,27.23
2022-08-09T09:42:29.085Z,27.28
2022-08-09T09:44:08.846Z,27.33
2022-08-09T09:45:48.632Z,27.33
2022-08-09T09:49:08.161Z,27.4
2022-08-09T09:50:47.934Z,27.44
2022-08-09T09:52:27.685Z,27.47
2022-08-09T09:54:07.457Z,27.47
2022-08-09T09:57:26.998Z,27.55
2022-08-09T09:59:06.769Z,27.59
2022-08-09T10:00:46.527Z,27.62
2022-08-09T10:02:26.300Z,27.64
2022-08-09T10:04:06.053Z,27.66
2022-08-09T10:05:45.830Z,27.71
2022-08-09T10:07:25.605Z,27.76
2022-08-09T10:09:05.365Z,27.77
2022-08-09T10:10:45.127Z,27.8
2022-08-09T10:12:24.903Z,27.83
2022-08-09T10:14:04.669Z,27.86
2022-08-09T10:15:44.431Z,27.9
2022-08-09T10:17:24.197Z,27.94
2022-08-09T10:19:03.974Z,27.97
2022-08-09T10:20:43.742Z,28
2022-08-09T10:22:23.502Z,28.03
2022-08-09T10:24:03.267Z,28.08
2022-08-09T10:25:43.048Z,28.11
2022-08-09T10:27:22.804Z,28.14
2022-08-09T10:29:02.568Z,28.18
2022-08-09T10:30:42.334Z,28.21
2022-08-09T10:32:22.114Z,28.23
2022-08-09T10:34:01.895Z,28.29
2022-08-09T10:35:41.646Z,28.3
2022-08-09T10:40:40.959Z,28.43
2022-08-09T10:42:20.707Z,28.47
2022-08-09T10:44:00.484Z,28.52
2022-08-09T10:45:40.254Z,28.54
2022-08-09T10:50:39.561Z,28.63
2022-08-09T10:52:19.337Z,28.67
2022-08-09T10:55:38.872Z,28.73
2022-08-09T10:57:18.626Z,28.79
2022-08-09T10:58:58.395Z,28.81
2022-08-09T11:00:38.165Z,28.82
2022-08-09T11:02:17.923Z,28.86
2022-08-09T11:03:57.701Z,28.89
2022-08-09T11:07:17.238Z,28.94
2022-08-09T11:10:36.751Z,28.98
2022-08-09T11:12:16.530Z,29.01
2022-08-09T11:13:56.310Z,29.05
2022-08-09T11:17:15.820Z,29.09
2022-08-09T11:18:55.596Z,29.15
2022-08-09T11:20:35.360Z,29.2
2022-08-09T11:22:15.128Z,29.21
2022-08-09T11:23:54.904Z,29.23
2022-08-09T11:27:14.446Z,29.28
2022-08-09T11:28:54.203Z,29.32
2022-08-09T11:30:33.966Z,29.33
2022-08-09T11:32:13.743Z,29.37
2022-08-09T11:33:53.504Z,29.42
2022-08-09T11:35:33.278Z,29.44
2022-08-09T11:37:13.037Z,29.48
2022-08-09T11:38:52.808Z,29.51
2022-08-09T11:40:32.568Z,29.55
2022-08-09T11:42:12.336Z,29.59
2022-08-09T11:45:31.887Z,29.6
2022-08-09T11:47:11.638Z,29.63
2022-08-09T11:48:51.419Z,29.64
2022-08-09T11:50:31.187Z,29.66
2022-08-09T11:52:10.946Z,29.68
2022-08-09T11:53:50.761Z,29.69
2022-08-09T11:55:30.489Z,29.73
2022-08-09T11:57:10.256Z,29.74
2022-08-09T11:58:50.028Z,29.78
2022-08-09T12:00:29.777Z,29.78
2022-08-09T12:02:09.553Z,29.81
2022-08-09T12:03:49.314Z,29.84
2022-08-09T12:07:08.854Z,29.94
2022-08-09T12:08:48.636Z,29.97
2022-08-09T12:10:28.399Z,30.01
2022-08-09T12:12:08.170Z,30.03
2022-08-09T12:13:47.924Z,30.07
2022-08-09T12:17:07.449Z,30.13
2022-08-09T12:18:47.221Z,30.15
2022-08-09T12:20:26.996Z,30.2
2022-08-09T12:22:06.770Z,30.2
2022-08-09T12:23:46.530Z,30.21
2022-08-09T12:25:26.297Z,30.22
2022-08-09T12:27:06.068Z,30.24
2022-08-09T12:28:45.838Z,30.28
2022-08-09T12:30:25.608Z,30.28
2022-08-09T12:32:05.372Z,30.29
2022-08-09T12:35:24.910Z,30.34
2022-08-09T12:37:04.674Z,30.36
2022-08-09T12:38:44.431Z,30.39
2022-08-09T12:40:24.208Z,30.41
2022-08-09T12:42:03.974Z,30.45
2022-08-09T12:43:43.746Z,30.45
2022-08-09T12:47:03.277Z,30.49
2022-08-09T12:48:43.039Z,30.52
2022-08-09T12:50:22.812Z,30.54
2022-08-09T12:52:02.588Z,30.57
2022-08-09T12:53:42.351Z,30.59
2022-08-09T12:55:22.111Z,30.62
2022-08-09T12:57:01.882Z,30.65
2022-08-09T12:58:41.642Z,30.67
2022-08-09T13:00:21.425Z,30.69
2022-08-09T13:02:01.181Z,30.72
2022-08-09T13:03:40.942Z,30.76
2022-08-09T13:07:00.502Z,30.76
2022-08-09T13:08:40.247Z,30.79
2022-08-09T13:10:20.023Z,30.8
2022-08-09T13:11:59.788Z,30.79
2022-08-09T13:13:39.554Z,30.8
2022-08-09T13:15:19.333Z,30.82
2022-08-09T13:16:59.097Z,30.82
2022-08-09T13:18:38.857Z,30.83
2022-08-09T13:20:18.626Z,30.83
2022-08-09T13:21:58.399Z,30.87
2022-08-09T13:23:38.153Z,30.84
2022-08-09T13:25:17.917Z,30.85
2022-08-09T13:26:57.687Z,30.87
2022-08-09T13:28:37.460Z,30.87
2022-08-09T13:30:17.233Z,30.9
2022-08-09T13:31:57.000Z,30.9
2022-08-09T13:33:36.766Z,30.93
2022-08-09T13:35:16.531Z,30.92
2022-08-09T13:36:56.297Z,30.93
2022-08-09T13:40:15.841Z,30.95
2022-08-09T13:41:55.607Z,30.95
2022-08-09T13:43:35.380Z,30.96
2022-08-09T13:45:15.126Z,31
2022-08-09T13:46:54.905Z,30.99
2022-08-09T13:48:34.670Z,31.02
2022-08-09T13:50:14.454Z,31.02
2022-08-09T13:51:54.205Z,31.05
2022-08-09T13:53:33.987Z,31.07
2022-08-09T13:55:13.742Z,31.07
2022-08-09T13:56:53.513Z,31.09
2022-08-09T13:58:33.284Z,31.11
2022-08-09T14:00:13.046Z,31.13
2022-08-09T14:01:52.819Z,31.15
2022-08-09T14:03:32.581Z,31.17
2022-08-09T14:05:12.352Z,31.19
2022-08-09T14:06:52.126Z,31.2
2022-08-09T14:08:31.895Z,31.24
2022-08-09T14:10:11.647Z,31.28
2022-08-09T14:11:51.429Z,31.28
2022-08-09T14:13:31.190Z,31.3
2022-08-09T14:15:10.947Z,31.31
2022-08-09T14:16:50.712Z,31.34
2022-08-09T14:18:30.487Z,31.37
2022-08-09T14:20:10.251Z,31.39
2022-08-09T14:21:50.021Z,31.41
2022-08-09T14:23:29.791Z,31.44
2022-08-09T14:25:09.548Z,31.46
2022-08-09T14:26:49.338Z,31.46
2022-08-09T14:28:29.086Z,31.48
2022-08-09T14:30:08.855Z,31.51
2022-08-09T14:31:48.633Z,31.51
2022-08-09T14:33:28.400Z,31.55
2022-08-09T14:36:47.934Z,31.59
2022-08-09T14:38:27.705Z,31.63
2022-08-09T14:40:07.464Z,31.65
2022-08-09T14:41:47.239Z,31.65
2022-08-09T14:43:26.999Z,31.65
2022-08-09T14:45:06.773Z,31.69
2022-08-09T14:46:46.552Z,31.69
2022-08-09T14:48:26.314Z,31.68
2022-08-09T14:50:06.077Z,31.74
2022-08-09T14:51:45.870Z,31.71
2022-08-09T14:53:25.601Z,31.74
2022-08-09T14:55:05.376Z,31.73
2022-08-09T14:56:45.141Z,31.74
2022-08-09T14:58:24.914Z,31.75
2022-08-09T15:00:04.684Z,31.76
2022-08-09T15:01:44.448Z,31.77
2022-08-09T15:05:03.975Z,31.75
2022-08-09T15:06:43.756Z,31.76
2022-08-09T15:08:23.513Z,31.75
2022-08-09T15:10:03.276Z,31.76
2022-08-09T15:11:43.072Z,31.75
2022-08-09T15:13:22.828Z,31.75
2022-08-09T15:15:02.600Z,31.75
2022-08-09T15:16:42.362Z,31.74
2022-08-09T15:18:22.125Z,31.76
2022-08-09T15:20:01.885Z,31.75
2022-08-09T15:21:41.658Z,31.75
2022-08-09T15:23:21.419Z,31.73
2022-08-09T15:25:01.204Z,31.72
2022-08-09T15:26:40.971Z,31.71
2022-08-09T15:28:20.727Z,31.71
2022-08-09T15:30:00.508Z,31.72
2022-08-09T15:31:40.309Z,31.73
2022-08-09T15:33:20.042Z,31.71
2022-08-09T15:34:59.796Z,31.72
2022-08-09T15:36:39.562Z,31.72
2022-08-09T15:41:38.874Z,31.71
2022-08-09T15:43:18.640Z,31.69
2022-08-09T15:44:58.408Z,31.67
2022-08-09T15:46:38.167Z,31.7
2022-08-09T15:48:17.948Z,31.67
2022-08-09T15:51:37.478Z,31.65
2022-08-09T15:53:17.257Z,31.65
2022-08-09T15:54:57.015Z,31.66
2022-08-09T15:56:36.785Z,31.64
2022-08-09T15:58:16.554Z,31.62
2022-08-09T15:59:56.305Z,31.63
2022-08-09T16:01:36.072Z,31.63
2022-08-09T16:03:15.854Z,31.61
2022-08-09T16:06:35.373Z,31.59
2022-08-09T16:08:15.160Z,31.59
2022-08-09T16:09:54.919Z,31.57
2022-08-09T16:11:34.695Z,31.55
2022-08-09T16:13:14.448Z,31.54
2022-08-09T16:14:54.225Z,31.57
2022-08-09T16:16:33.976Z,31.54
2022-08-09T16:19:53.524Z,31.52
2022-08-09T16:21:33.284Z,31.48
2022-08-09T16:23:13.065Z,31.49
2022-08-09T16:24:52.823Z,31.48
2022-08-09T16:26:32.590Z,31.45
2022-08-09T16:28:12.356Z,31.45
2022-08-09T16:29:52.129Z,31.43
2022-08-09T16:31:31.900Z,31.4
2022-08-09T16:33:11.664Z,31.39
2022-08-09T16:34:51.438Z,31.37
2022-08-09T16:36:31.199Z,31.36
2022-08-09T16:38:10.959Z,31.34
2022-08-09T16:39:50.738Z,31.34
2022-08-09T16:41:30.494Z,31.32
2022-08-09T16:43:10.276Z,31.33
2022-08-09T16:44:50.043Z,31.31
2022-08-09T16:46:29.810Z,31.31
2022-08-09T16:48:09.583Z,31.28
2022-08-09T16:49:49.337Z,31.3
2022-08-09T16:51:29.119Z,31.27
2022-08-09T16:53:08.865Z,31.24
2022-08-09T16:54:48.651Z,31.25
2022-08-09T16:56:28.418Z,31.25
2022-08-09T16:58:08.178Z,31.23
2022-08-09T16:59:47.950Z,31.23
2022-08-09T17:01:27.724Z,31.2
2022-08-09T17:03:07.479Z,31.18
2022-08-09T17:04:47.257Z,31.18
2022-08-09T17:06:27.008Z,31.15
2022-08-09T17:08:06.788Z,31.17
2022-08-09T17:09:46.553Z,31.15
2022-08-09T17:11:26.321Z,31.12
2022-08-09T17:13:06.081Z,31.12
2022-08-09T17:14:45.852Z,31.12
2022-08-09T17:16:25.630Z,31.11
2022-08-09T17:19:45.165Z,31.1
2022-08-09T17:21:24.920Z,31.07
2022-08-09T17:23:04.683Z,31.06
2022-08-09T17:24:44.453Z,31.04
2022-08-09T17:26:24.223Z,31.03
2022-08-09T17:28:04.000Z,31.04
2022-08-09T17:29:43.760Z,31.03
2022-08-09T17:31:23.524Z,31
2022-08-09T17:33:03.290Z,30.98
2022-08-09T17:34:43.077Z,30.97
2022-08-09T17:36:22.839Z,30.94
2022-08-09T17:38:02.618Z,30.96
2022-08-09T17:39:42.369Z,30.94
2022-08-09T17:41:22.148Z,30.92
2022-08-09T17:43:01.911Z,30.91
2022-08-09T17:44:41.661Z,30.9
2022-08-09T17:46:21.448Z,30.87
2022-08-09T17:49:40.963Z,30.82
2022-08-09T17:51:20.744Z,30.82
2022-08-09T17:53:00.500Z,30.8
2022-08-09T17:54:40.278Z,30.81
2022-08-09T17:56:20.044Z,30.78
2022-08-09T17:59:39.575Z,30.75
2022-08-09T18:01:19.350Z,30.72
2022-08-09T18:02:59.099Z,30.71
2022-08-09T18:06:18.652Z,30.67
2022-08-09T18:09:38.186Z,30.63
2022-08-09T18:11:17.942Z,30.62
2022-08-09T18:12:57.716Z,30.59
2022-08-09T18:14:37.478Z,30.56
2022-08-09T18:16:17.256Z,30.56
2022-08-09T18:17:57.025Z,30.55
2022-08-09T18:19:36.790Z,30.53
2022-08-09T18:21:16.551Z,30.47
2022-08-09T18:22:56.331Z,30.49
2022-08-09T18:27:55.633Z,30.4
2022-08-09T18:29:35.408Z,30.35
2022-08-09T18:31:15.145Z,30.29
2022-08-09T18:32:54.926Z,30.24
2022-08-09T18:34:34.693Z,30.15
2022-08-09T18:36:14.458Z,30.1
2022-08-09T18:37:54.227Z,30.05
2022-08-09T18:39:33.991Z,30.01
2022-08-09T18:41:13.742Z,29.96
2022-08-09T18:42:53.516Z,29.93
2022-08-09T18:44:33.278Z,29.89
2022-08-09T18:46:13.044Z,29.86
2022-08-09T18:49:32.591Z,29.76
2022-08-09T18:51:12.331Z,29.72
2022-08-09T18:52:52.099Z,29.66
2022-08-09T18:56:11.636Z,29.58
2022-08-09T18:57:51.392Z,29.51
2022-08-09T18:59:31.159Z,29.49
2022-08-09T19:01:10.913Z,29.46
2022-08-09T19:02:50.691Z,29.41
2022-08-09T19:04:30.464Z,29.38
2022-08-09T19:06:10.220Z,29.33
2022-08-09T19:07:49.983Z,29.28
2022-08-09T19:09:29.746Z,29.23
2022-08-09T19:11:09.521Z,29.16
2022-08-09T19:12:49.271Z,29.1
2022-08-09T19:14:29.042Z,29.05
2022-08-09T19:16:08.810Z,28.97
2022-08-09T19:17:48.574Z,28.9
2022-08-09T19:19:28.333Z,28.86
2022-08-09T19:21:08.107Z,28.77
2022-08-09T19:22:47.857Z,28.71
2022-08-09T19:24:27.631Z,28.67
2022-08-09T19:26:07.388Z,28.62
2022-08-09T19:27:47.163Z,28.55
2022-08-09T19:31:06.683Z,28.44
2022-08-09T19:32:46.451Z,28.4
2022-08-09T19:36:05.981Z,28.28
2022-08-09T19:37:45.753Z,28.25
2022-08-09T19:39:25.517Z,28.2
2022-08-09T19:42:47.293Z,28.09
2022-08-09T19:44:24.807Z,28.03
2022-08-09T19:46:04.548Z,28
2022-08-09T19:49:24.139Z,27.9
2022-08-09T19:51:03.865Z,27.84
2022-08-09T19:52:43.619Z,27.8
2022-08-09T19:54:23.388Z,27.77
2022-08-09T19:56:03.177Z,27.73
2022-08-09T19:59:22.675Z,27.62
2022-08-09T20:01:02.455Z,27.58
2022-08-09T20:02:42.217Z,27.53
2022-08-09T20:04:21.971Z,27.5
2022-08-09T20:06:01.734Z,27.46
2022-08-09T20:07:41.502Z,27.4
2022-08-09T20:09:21.269Z,27.38
2022-08-09T20:11:01.055Z,27.33
2022-08-09T20:12:40.794Z,27.28
2022-08-09T20:16:00.336Z,27.22
2022-08-09T20:17:40.087Z,27.18
2022-08-09T20:19:19.849Z,27.13
2022-08-09T20:20:59.623Z,27.07
2022-08-09T20:22:39.379Z,27.03
2022-08-09T20:24:19.152Z,27
2022-08-09T20:25:58.927Z,26.97
2022-08-09T20:27:38.688Z,26.92
2022-08-09T20:29:18.439Z,26.89
2022-08-09T20:30:58.220Z,26.83
2022-08-09T20:32:38.144Z,26.81
2022-08-09T20:34:17.744Z,26.77
2022-08-09T20:35:57.494Z,26.73
2022-08-09T20:37:37.267Z,26.7
2022-08-09T20:39:17.028Z,26.65
2022-08-09T20:40:56.790Z,26.63
2022-08-09T20:42:36.554Z,26.57
2022-08-09T20:44:16.336Z,26.54
2022-08-09T20:45:56.096Z,26.51
2022-08-09T20:47:35.862Z,26.47
2022-08-09T20:49:15.622Z,26.45
2022-08-09T20:50:55.384Z,26.4
2022-08-09T20:52:35.147Z,26.37
2022-08-09T20:54:14.921Z,26.32
2022-08-09T20:55:54.672Z,26.28
2022-08-09T20:57:34.450Z,26.25
2022-08-09T20:59:14.201Z,26.23
2022-08-09T21:00:53.969Z,26.18
2022-08-09T21:02:33.744Z,26.15
2022-08-09T21:04:13.505Z,26.12
2022-08-09T21:05:53.257Z,26.07
2022-08-09T21:07:33.037Z,26.03
2022-08-09T21:10:52.573Z,25.99
2022-08-09T21:12:32.339Z,25.95
2022-08-09T21:14:12.099Z,25.92
2022-08-09T21:15:51.845Z,25.87
2022-08-09T21:17:31.618Z,25.83
2022-08-09T21:19:11.382Z,25.79
2022-08-09T21:20:51.149Z,25.78
2022-08-09T21:22:30.924Z,25.74
2022-08-09T21:24:10.677Z,25.7
2022-08-09T21:25:50.444Z,25.68
2022-08-09T21:29:09.978Z,25.61
2022-08-09T21:30:49.748Z,25.56
2022-08-09T21:32:29.529Z,25.55
2022-08-09T21:35:49.042Z,25.47
2022-08-09T21:37:28.810Z,25.45
2022-08-09T21:39:08.660Z,25.41
2022-08-09T21:40:48.323Z,25.36
2022-08-09T21:42:28.088Z,25.33
2022-08-09T21:45:47.619Z,25.28
2022-08-09T21:49:07.146Z,25.2
2022-08-09T21:50:46.909Z,25.18
2022-08-09T21:52:26.686Z,25.14
2022-08-09T21:54:06.442Z,25.12
2022-08-09T21:55:46.426Z,25.08
2022-08-09T21:59:05.724Z,25
2022-08-09T22:00:45.500Z,24.98
2022-08-09T22:02:25.262Z,24.97
2022-08-09T22:04:05.052Z,24.93
2022-08-09T22:05:44.803Z,24.89
2022-08-09T22:07:24.558Z,24.85
2022-08-09T22:09:04.316Z,24.83
2022-08-09T22:10:44.096Z,24.8
2022-08-09T22:12:23.859Z,24.76
2022-08-09T22:14:03.612Z,24.74
2022-08-09T22:15:43.384Z,24.69
2022-08-09T22:17:23.138Z,24.68
2022-08-09T22:19:02.927Z,24.65
2022-08-09T22:20:42.662Z,24.6
2022-08-09T22:22:22.441Z,24.57
2022-08-09T22:25:41.968Z,24.52
2022-08-09T22:30:41.260Z,24.43
2022-08-09T22:32:21.029Z,24.4
2022-08-09T22:34:00.788Z,24.38
2022-08-09T22:35:40.581Z,24.34
2022-08-09T22:37:20.324Z,24.3
2022-08-09T22:39:00.079Z,24.28
2022-08-09T22:40:39.849Z,24.26
2022-08-09T22:42:19.607Z,24.21
2022-08-09T22:43:59.376Z,24.19
2022-08-09T22:45:39.146Z,24.16
2022-08-09T22:48:04.537Z,24.14
2022-08-09T22:48:58.681Z,24.1
2022-08-09T22:50:38.441Z,24.09
2022-08-09T22:52:18.196Z,24.04
2022-08-09T22:55:37.732Z,23.98
2022-08-09T22:57:17.502Z,23.96
2022-08-09T22:58:57.250Z,23.95
2022-08-09T23:00:37.015Z,23.9
2022-08-09T23:02:16.789Z,23.9
2022-08-09T23:03:56.549Z,23.86
2022-08-09T23:05:36.309Z,23.84
2022-08-09T23:07:16.079Z,23.81
2022-08-09T23:08:55.857Z,23.79
2022-08-09T23:10:35.607Z,23.74
2022-08-09T23:12:15.376Z,23.72
2022-08-09T23:13:55.143Z,23.68
2022-08-09T23:15:34.899Z,23.67
2022-08-09T23:17:14.673Z,23.64
2022-08-09T23:18:54.439Z,23.62
2022-08-09T23:20:34.201Z,23.59
2022-08-09T23:22:13.964Z,23.56
2022-08-09T23:23:53.731Z,23.54
2022-08-09T23:25:33.494Z,23.5
2022-08-09T23:27:13.254Z,23.48